sensor_id;sensor_type;location;lat;lon;timestamp;temperature;humidity
20370;DHT22;10344;47.592;9.600;2023-02-01T00:01:17;5.00;99.90
20370;DHT22;10344;47.592;9.600;2023-02-01T00:03:42;4.90;99.90
20370;DHT22;10344;47.592;9.600;2023-02-01T00:06:08;4.90;99.90
20370;DHT22;10344;47.592;9.600;2023-02-01T00:08:33;4.80;99.90
20370;DHT22;10344;47.592;9.600;2023-02-01T00:11:00;4.90;99.90
20370;DHT22;10344;47.592;9.600;2023-02-01T00:13:29;5.00;99.90
20370;DHT22;10344;47.592;9.600;2023-02-01T00:16:01;4.90;99.90
20370;DHT22;10344;47.592;9.600;2023-02-01T00:18:27;4.90;99.90
20370;DHT22;10344;47.592;9.600;2023-02-01T00:20:52;5.00;99.90
20370;DHT22;10344;47.592;9.600;2023-02-01T00:23:18;5.00;99.90
20370;DHT22;10344;47.592;9.600;2023-02-01T00:25:43;4.90;99.90
20370;DHT22;10344;47.592;9.600;2023-02-01T00:28:11;4.80;99.90
20370;DHT22;10344;47.592;9.600;2023-02-01T00:30:38;4.80;99.90
20370;DHT22;10344;47.592;9.600;2023-02-01T00:33:04;4.90;99.90
20370;DHT22;10344;47.592;9.600;2023-02-01T00:35:30;5.00;99.90
20370;DHT22;10344;47.592;9.600;2023-02-01T00:37:55;4.90;99.90
20370;DHT22;10344;47.592;9.600;2023-02-01T00:40:23;4.90;99.90
20370;DHT22;10344;47.592;9.600;2023-02-01T00:42:49;4.80;99.90
20370;DHT22;10344;47.592;9.600;2023-02-01T00:45:15;4.70;99.90
20370;DHT22;10344;47.592;9.600;2023-02-01T00:47:41;4.90;99.90
20370;DHT22;10344;47.592;9.600;2023-02-01T00:50:09;4.90;99.90
20370;DHT22;10344;47.592;9.600;2023-02-01T00:52:34;4.90;99.90
20370;DHT22;10344;47.592;9.600;2023-02-01T00:55:00;4.80;99.90
20370;DHT22;10344;47.592;9.600;2023-02-01T00:57:25;4.90;99.90
20370;DHT22;10344;47.592;9.600;2023-02-01T00:59:53;4.90;99.90
20370;DHT22;10344;47.592;9.600;2023-02-01T01:02:19;4.80;99.90
20370;DHT22;10344;47.592;9.600;2023-02-01T01:04:44;4.80;99.90
20370;DHT22;10344;47.592;9.600;2023-02-01T01:07:10;4.80;99.90
20370;DHT22;10344;47.592;9.600;2023-02-01T01:09:38;4.80;99.90
20370;DHT22;10344;47.592;9.600;2023-02-01T01:12:03;4.90;99.90
20370;DHT22;10344;47.592;9.600;2023-02-01T01:14:32;5.00;99.90
20370;DHT22;10344;47.592;9.600;2023-02-01T01:16:57;5.00;99.90
20370;DHT22;10344;47.592;9.600;2023-02-01T01:19:23;5.00;99.90
20370;DHT22;10344;47.592;9.600;2023-02-01T01:21:48;4.90;99.90
20370;DHT22;10344;47.592;9.600;2023-02-01T01:24:14;4.90;99.90
20370;DHT22;10344;47.592;9.600;2023-02-01T01:26:42;4.80;99.90
20370;DHT22;10344;47.592;9.600;2023-02-01T01:29:10;4.80;99.90
20370;DHT22;10344;47.592;9.600;2023-02-01T01:31:36;4.80;99.90
20370;DHT22;10344;47.592;9.600;2023-02-01T01:34:01;4.70;99.90
20370;DHT22;10344;47.592;9.600;2023-02-01T01:36:27;4.70;99.90
20370;DHT22;10344;47.592;9.600;2023-02-01T01:38:53;4.70;99.90
20370;DHT22;10344;47.592;9.600;2023-02-01T01:41:20;4.70;99.90
20370;DHT22;10344;47.592;9.600;2023-02-01T01:43:55;4.70;99.90
20370;DHT22;10344;47.592;9.600;2023-02-01T01:46:24;4.70;99.90
20370;DHT22;10344;47.592;9.600;2023-02-01T01:48:52;4.70;99.90
20370;DHT22;10344;47.592;9.600;2023-02-01T01:51:19;4.80;99.90
20370;DHT22;10344;47.592;9.600;2023-02-01T01:53:50;4.80;99.90
20370;DHT22;10344;47.592;9.600;2023-02-01T01:56:18;4.80;99.90
20370;DHT22;10344;47.592;9.600;2023-02-01T01:58:47;4.90;99.90
20370;DHT22;10344;47.592;9.600;2023-02-01T02:01:12;5.00;99.90
20370;DHT22;10344;47.592;9.600;2023-02-01T02:03:43;5.00;99.90
20370;DHT22;10344;47.592;9.600;2023-02-01T02:08:44;5.00;99.90
20370;DHT22;10344;47.592;9.600;2023-02-01T02:11:12;5.20;99.90
20370;DHT22;10344;47.592;9.600;2023-02-01T02:13:41;5.20;99.90
20370;DHT22;10344;47.592;9.600;2023-02-01T02:19:22;5.20;99.90
20370;DHT22;10344;47.592;9.600;2023-02-01T02:21:32;5.20;99.90
20370;DHT22;10344;47.592;9.600;2023-02-01T02:24:09;5.20;99.90
20370;DHT22;10344;47.592;9.600;2023-02-01T02:26:47;5.20;99.90
20370;DHT22;10344;47.592;9.600;2023-02-01T02:42:21;5.30;99.90
20370;DHT22;10344;47.592;9.600;2023-02-01T02:48:11;5.30;99.90
20370;DHT22;10344;47.592;9.600;2023-02-01T02:50:41;5.20;99.90
20370;DHT22;10344;47.592;9.600;2023-02-01T02:53:32;5.10;99.90
20370;DHT22;10344;47.592;9.600;2023-02-01T02:56:17;5.10;99.90
20370;DHT22;10344;47.592;9.600;2023-02-01T02:59:02;5.00;99.90
20370;DHT22;10344;47.592;9.600;2023-02-01T03:01:47;5.00;99.90
20370;DHT22;10344;47.592;9.600;2023-02-01T03:04:31;5.00;99.90
20370;DHT22;10344;47.592;9.600;2023-02-01T03:06:57;5.20;99.90
20370;DHT22;10344;47.592;9.600;2023-02-01T03:09:33;5.20;99.90
20370;DHT22;10344;47.592;9.600;2023-02-01T03:12:07;5.20;99.90
20370;DHT22;10344;47.592;9.600;2023-02-01T03:14:59;5.20;99.90
20370;DHT22;10344;47.592;9.600;2023-02-01T03:17:32;5.20;99.90
20370;DHT22;10344;47.592;9.600;2023-02-01T03:20:00;5.20;99.90
20370;DHT22;10344;47.592;9.600;2023-02-01T03:22:28;5.10;99.90
20370;DHT22;10344;47.592;9.600;2023-02-01T03:25:09;5.10;99.90
20370;DHT22;10344;47.592;9.600;2023-02-01T03:27:50;5.10;99.90
20370;DHT22;10344;47.592;9.600;2023-02-01T03:30:20;5.00;99.90
20370;DHT22;10344;47.592;9.600;2023-02-01T03:32:51;5.00;99.90
20370;DHT22;10344;47.592;9.600;2023-02-01T03:43:34;5.00;99.90
20370;DHT22;10344;47.592;9.600;2023-02-01T03:46:03;5.10;99.90
20370;DHT22;10344;47.592;9.600;2023-02-01T03:48:34;5.20;99.90
20370;DHT22;10344;47.592;9.600;2023-02-01T03:51:01;5.20;99.90
20370;DHT22;10344;47.592;9.600;2023-02-01T03:53:28;5.20;99.90
20370;DHT22;10344;47.592;9.600;2023-02-01T03:55:54;5.10;99.90
20370;DHT22;10344;47.592;9.600;2023-02-01T03:58:21;5.20;99.90
20370;DHT22;10344;47.592;9.600;2023-02-01T04:00:53;5.20;99.90
20370;DHT22;10344;47.592;9.600;2023-02-01T04:03:19;5.20;99.90
20370;DHT22;10344;47.592;9.600;2023-02-01T04:05:47;5.30;99.90
20370;DHT22;10344;47.592;9.600;2023-02-01T04:08:15;5.30;99.90
20370;DHT22;10344;47.592;9.600;2023-02-01T04:10:40;5.30;99.90
20370;DHT22;10344;47.592;9.600;2023-02-01T04:13:06;5.20;99.90
20370;DHT22;10344;47.592;9.600;2023-02-01T04:15:31;5.30;99.90
20370;DHT22;10344;47.592;9.600;2023-02-01T04:17:57;5.30;99.90
20370;DHT22;10344;47.592;9.600;2023-02-01T04:20:25;5.30;99.90
20370;DHT22;10344;47.592;9.600;2023-02-01T04:22:50;5.20;99.90
20370;DHT22;10344;47.592;9.600;2023-02-01T04:25:16;5.20;99.90
20370;DHT22;10344;47.592;9.600;2023-02-01T04:27:42;5.10;99.90
20370;DHT22;10344;47.592;9.600;2023-02-01T04:30:08;5.20;99.90
20370;DHT22;10344;47.592;9.600;2023-02-01T04:32:35;5.10;99.90
20370;DHT22;10344;47.592;9.600;2023-02-01T04:35:01;5.10;99.90
20370;DHT22;10344;47.592;9.600;2023-02-01T04:37:26;5.20;99.90
20370;DHT22;10344;47.592;9.600;2023-02-01T04:39:52;5.10;99.90
20370;DHT22;10344;47.592;9.600;2023-02-01T04:42:17;5.10;99.90
20370;DHT22;10344;47.592;9.600;2023-02-01T04:44:43;5.20;99.90
20370;DHT22;10344;47.592;9.600;2023-02-01T04:47:08;5.20;99.90
20370;DHT22;10344;47.592;9.600;2023-02-01T04:49:34;5.20;99.90
20370;DHT22;10344;47.592;9.600;2023-02-01T04:52:00;5.10;99.90
20370;DHT22;10344;47.592;9.600;2023-02-01T04:54:25;5.00;99.90
20370;DHT22;10344;47.592;9.600;2023-02-01T04:56:53;5.00;99.90
20370;DHT22;10344;47.592;9.600;2023-02-01T04:59:21;5.00;99.90
20370;DHT22;10344;47.592;9.600;2023-02-01T05:01:47;4.90;99.90
20370;DHT22;10344;47.592;9.600;2023-02-01T05:04:12;5.00;99.90
20370;DHT22;10344;47.592;9.600;2023-02-01T05:06:38;5.00;99.90
20370;DHT22;10344;47.592;9.600;2023-02-01T05:09:03;4.90;99.90
20370;DHT22;10344;47.592;9.600;2023-02-01T05:11:29;4.90;99.90
20370;DHT22;10344;47.592;9.600;2023-02-01T05:14:13;4.80;99.90
20370;DHT22;10344;47.592;9.600;2023-02-01T05:16:38;4.90;99.90
20370;DHT22;10344;47.592;9.600;2023-02-01T05:19:06;4.90;99.90
20370;DHT22;10344;47.592;9.600;2023-02-01T05:21:31;4.90;99.90
20370;DHT22;10344;47.592;9.600;2023-02-01T05:23:59;4.80;99.90
20370;DHT22;10344;47.592;9.600;2023-02-01T05:26:44;4.90;99.90
20370;DHT22;10344;47.592;9.600;2023-02-01T05:29:09;5.00;99.90
20370;DHT22;10344;47.592;9.600;2023-02-01T05:31:35;4.90;99.90
20370;DHT22;10344;47.592;9.600;2023-02-01T05:34:01;4.90;99.90
20370;DHT22;10344;47.592;9.600;2023-02-01T05:36:29;5.00;99.90
20370;DHT22;10344;47.592;9.600;2023-02-01T05:39:02;5.10;99.90
20370;DHT22;10344;47.592;9.600;2023-02-01T05:41:32;5.10;99.90
20370;DHT22;10344;47.592;9.600;2023-02-01T05:43:58;5.10;99.90
20370;DHT22;10344;47.592;9.600;2023-02-01T05:46:23;5.10;99.90
20370;DHT22;10344;47.592;9.600;2023-02-01T05:48:49;5.10;99.90
20370;DHT22;10344;47.592;9.600;2023-02-01T05:51:17;5.20;99.90
20370;DHT22;10344;47.592;9.600;2023-02-01T05:53:42;5.10;99.90
20370;DHT22;10344;47.592;9.600;2023-02-01T05:56:08;5.10;99.90
20370;DHT22;10344;47.592;9.600;2023-02-01T05:58:36;5.20;99.90
20370;DHT22;10344;47.592;9.600;2023-02-01T06:01:02;5.20;99.90
20370;DHT22;10344;47.592;9.600;2023-02-01T06:03:28;5.20;99.90
20370;DHT22;10344;47.592;9.600;2023-02-01T06:05:56;5.30;99.90
20370;DHT22;10344;47.592;9.600;2023-02-01T06:08:21;5.20;99.90
20370;DHT22;10344;47.592;9.600;2023-02-01T06:10:49;5.20;99.90
20370;DHT22;10344;47.592;9.600;2023-02-01T06:13:17;5.20;99.90
20370;DHT22;10344;47.592;9.600;2023-02-01T06:15:42;5.20;99.90
20370;DHT22;10344;47.592;9.600;2023-02-01T06:18:09;5.30;99.90
20370;DHT22;10344;47.592;9.600;2023-02-01T06:20:37;5.30;99.90
20370;DHT22;10344;47.592;9.600;2023-02-01T06:23:02;5.30;99.90
20370;DHT22;10344;47.592;9.600;2023-02-01T06:25:30;5.30;99.90
20370;DHT22;10344;47.592;9.600;2023-02-01T06:27:55;5.40;99.90
20370;DHT22;10344;47.592;9.600;2023-02-01T06:30:23;5.30;99.90
20370;DHT22;10344;47.592;9.600;2023-02-01T06:32:50;5.30;99.90
20370;DHT22;10344;47.592;9.600;2023-02-01T06:35:18;5.30;99.90
20370;DHT22;10344;47.592;9.600;2023-02-01T06:37:44;5.30;99.90
20370;DHT22;10344;47.592;9.600;2023-02-01T06:40:10;5.30;99.90
20370;DHT22;10344;47.592;9.600;2023-02-01T06:42:36;5.30;99.90
20370;DHT22;10344;47.592;9.600;2023-02-01T06:45:02;5.30;99.90
20370;DHT22;10344;47.592;9.600;2023-02-01T06:47:27;5.30;99.90
20370;DHT22;10344;47.592;9.600;2023-02-01T06:49:53;5.30;99.90
20370;DHT22;10344;47.592;9.600;2023-02-01T06:52:18;5.30;99.90
20370;DHT22;10344;47.592;9.600;2023-02-01T06:54:44;5.30;99.90
20370;DHT22;10344;47.592;9.600;2023-02-01T06:57:09;5.40;99.90
20370;DHT22;10344;47.592;9.600;2023-02-01T06:59:35;5.40;99.90
20370;DHT22;10344;47.592;9.600;2023-02-01T07:02:00;5.40;99.90
20370;DHT22;10344;47.592;9.600;2023-02-01T07:04:26;5.40;99.90
20370;DHT22;10344;47.592;9.600;2023-02-01T07:06:51;5.40;99.90
20370;DHT22;10344;47.592;9.600;2023-02-01T07:09:17;5.30;99.90
20370;DHT22;10344;47.592;9.600;2023-02-01T07:11:42;5.30;99.90
20370;DHT22;10344;47.592;9.600;2023-02-01T07:14:12;5.30;99.90
20370;DHT22;10344;47.592;9.600;2023-02-01T07:16:37;5.30;99.90
20370;DHT22;10344;47.592;9.600;2023-02-01T07:19:05;5.30;99.90
20370;DHT22;10344;47.592;9.600;2023-02-01T07:21:31;5.30;99.90
20370;DHT22;10344;47.592;9.600;2023-02-01T07:23:57;5.40;99.90
20370;DHT22;10344;47.592;9.600;2023-02-01T07:26:23;5.40;99.90
20370;DHT22;10344;47.592;9.600;2023-02-01T07:28:48;5.50;99.90
20370;DHT22;10344;47.592;9.600;2023-02-01T07:31:15;5.50;99.90
20370;DHT22;10344;47.592;9.600;2023-02-01T07:33:41;5.40;99.90
20370;DHT22;10344;47.592;9.600;2023-02-01T07:36:07;5.30;99.90
20370;DHT22;10344;47.592;9.600;2023-02-01T07:38:35;5.30;99.90
20370;DHT22;10344;47.592;9.600;2023-02-01T07:41:05;5.20;99.90
20370;DHT22;10344;47.592;9.600;2023-02-01T07:43:33;5.20;99.90
20370;DHT22;10344;47.592;9.600;2023-02-01T07:49:46;5.20;99.90
20370;DHT22;10344;47.592;9.600;2023-02-01T07:56:17;5.40;99.90
20370;DHT22;10344;47.592;9.600;2023-02-01T07:58:46;5.40;99.90
20370;DHT22;10344;47.592;9.600;2023-02-01T08:01:17;5.40;99.90
20370;DHT22;10344;47.592;9.600;2023-02-01T08:03:53;5.50;99.90
20370;DHT22;10344;47.592;9.600;2023-02-01T08:06:20;5.50;99.90
20370;DHT22;10344;47.592;9.600;2023-02-01T08:08:46;5.50;99.90
20370;DHT22;10344;47.592;9.600;2023-02-01T08:11:12;5.50;99.90
20370;DHT22;10344;47.592;9.600;2023-02-01T08:13:41;5.60;99.90
20370;DHT22;10344;47.592;9.600;2023-02-01T08:16:07;5.60;99.90
20370;DHT22;10344;47.592;9.600;2023-02-01T08:18:33;5.50;99.90
20370;DHT22;10344;47.592;9.600;2023-02-01T08:21:06;5.50;99.90
20370;DHT22;10344;47.592;9.600;2023-02-01T08:23:32;5.60;99.90
20370;DHT22;10344;47.592;9.600;2023-02-01T08:26:31;5.60;99.90
20370;DHT22;10344;47.592;9.600;2023-02-01T08:28:52;5.60;99.90
20370;DHT22;10344;47.592;9.600;2023-02-01T08:31:20;5.60;99.90
20370;DHT22;10344;47.592;9.600;2023-02-01T08:33:58;5.60;99.90
20370;DHT22;10344;47.592;9.600;2023-02-01T08:36:26;5.60;99.90
20370;DHT22;10344;47.592;9.600;2023-02-01T08:38:54;5.70;99.90
20370;DHT22;10344;47.592;9.600;2023-02-01T08:41:22;5.60;99.90
20370;DHT22;10344;47.592;9.600;2023-02-01T08:43:51;5.60;99.90
20370;DHT22;10344;47.592;9.600;2023-02-01T08:46:17;5.70;99.90
20370;DHT22;10344;47.592;9.600;2023-02-01T08:48:43;5.70;99.90
20370;DHT22;10344;47.592;9.600;2023-02-01T08:51:11;5.80;99.90
20370;DHT22;10344;47.592;9.600;2023-02-01T08:53:38;5.70;99.90
20370;DHT22;10344;47.592;9.600;2023-02-01T08:56:07;5.70;99.90
20370;DHT22;10344;47.592;9.600;2023-02-01T08:58:33;5.70;99.90
20370;DHT22;10344;47.592;9.600;2023-02-01T09:01:09;5.70;99.90
20370;DHT22;10344;47.592;9.600;2023-02-01T09:03:38;5.80;99.90
20370;DHT22;10344;47.592;9.600;2023-02-01T09:06:09;5.90;99.90
20370;DHT22;10344;47.592;9.600;2023-02-01T09:08:38;5.80;99.90
20370;DHT22;10344;47.592;9.600;2023-02-01T09:11:07;5.80;99.90
20370;DHT22;10344;47.592;9.600;2023-02-01T09:13:33;5.80;99.90
20370;DHT22;10344;47.592;9.600;2023-02-01T09:16:02;5.80;99.90
20370;DHT22;10344;47.592;9.600;2023-02-01T09:18:28;5.80;99.90
20370;DHT22;10344;47.592;9.600;2023-02-01T09:20:54;5.90;99.90
20370;DHT22;10344;47.592;9.600;2023-02-01T09:23:19;5.80;99.90
20370;DHT22;10344;47.592;9.600;2023-02-01T09:25:48;5.80;99.90
20370;DHT22;10344;47.592;9.600;2023-02-01T09:28:17;5.80;99.90
20370;DHT22;10344;47.592;9.600;2023-02-01T09:30:42;5.90;99.90
20370;DHT22;10344;47.592;9.600;2023-02-01T09:33:08;5.90;99.90
20370;DHT22;10344;47.592;9.600;2023-02-01T09:35:34;5.90;99.90
20370;DHT22;10344;47.592;9.600;2023-02-01T09:37:59;6.00;99.90
20370;DHT22;10344;47.592;9.600;2023-02-01T09:40:25;6.00;99.90
20370;DHT22;10344;47.592;9.600;2023-02-01T09:48:00;6.00;99.90
20370;DHT22;10344;47.592;9.600;2023-02-01T09:50:37;5.90;99.90
20370;DHT22;10344;47.592;9.600;2023-02-01T10:01:00;6.10;99.90
20370;DHT22;10344;47.592;9.600;2023-02-01T10:03:34;6.10;99.90
20370;DHT22;10344;47.592;9.600;2023-02-01T10:17:25;6.30;99.90
20370;DHT22;10344;47.592;9.600;2023-02-01T10:22:43;6.30;99.90
20370;DHT22;10344;47.592;9.600;2023-02-01T10:27:50;6.40;99.90
20370;DHT22;10344;47.592;9.600;2023-02-01T10:30:24;6.40;99.90
20370;DHT22;10344;47.592;9.600;2023-02-01T10:32:55;6.40;99.90
20370;DHT22;10344;47.592;9.600;2023-02-01T10:35:29;6.50;99.90
20370;DHT22;10344;47.592;9.600;2023-02-01T10:38:00;6.60;99.90
20370;DHT22;10344;47.592;9.600;2023-02-01T10:40:27;6.60;99.90
20370;DHT22;10344;47.592;9.600;2023-02-01T10:42:57;6.50;99.90
20370;DHT22;10344;47.592;9.600;2023-02-01T10:45:27;6.70;99.90
20370;DHT22;10344;47.592;9.600;2023-02-01T10:47:55;6.80;99.90
20370;DHT22;10344;47.592;9.600;2023-02-01T10:56:10;7.00;99.90
20370;DHT22;10344;47.592;9.600;2023-02-01T10:58:47;7.20;99.90
20370;DHT22;10344;47.592;9.600;2023-02-01T11:01:24;7.20;99.90
20370;DHT22;10344;47.592;9.600;2023-02-01T11:03:57;7.10;99.90
20370;DHT22;10344;47.592;9.600;2023-02-01T11:08:52;7.20;99.90
20370;DHT22;10344;47.592;9.600;2023-02-01T11:11:18;7.20;99.90
20370;DHT22;10344;47.592;9.600;2023-02-01T11:13:44;7.20;99.90
20370;DHT22;10344;47.592;9.600;2023-02-01T11:16:18;7.10;99.90
20370;DHT22;10344;47.592;9.600;2023-02-01T11:18:44;7.10;99.90
20370;DHT22;10344;47.592;9.600;2023-02-01T11:21:10;7.10;99.90
20370;DHT22;10344;47.592;9.600;2023-02-01T11:23:40;7.20;99.90
20370;DHT22;10344;47.592;9.600;2023-02-01T11:28:37;7.20;99.90
20370;DHT22;10344;47.592;9.600;2023-02-01T11:31:04;7.30;99.90
20370;DHT22;10344;47.592;9.600;2023-02-01T11:33:33;7.30;99.90
20370;DHT22;10344;47.592;9.600;2023-02-01T11:36:07;7.40;99.90
20370;DHT22;10344;47.592;9.600;2023-02-01T11:38:33;7.70;99.90
20370;DHT22;10344;47.592;9.600;2023-02-01T11:41:12;8.00;99.90
20370;DHT22;10344;47.592;9.600;2023-02-01T11:46:19;8.40;99.90
20370;DHT22;10344;47.592;9.600;2023-02-01T11:48:50;8.80;99.90
20370;DHT22;10344;47.592;9.600;2023-02-01T11:51:42;9.10;99.90
20370;DHT22;10344;47.592;9.600;2023-02-01T11:57:55;9.30;99.90
20370;DHT22;10344;47.592;9.600;2023-02-01T12:02:51;9.30;99.90
20370;DHT22;10344;47.592;9.600;2023-02-01T12:08:12;9.00;99.90
20370;DHT22;10344;47.592;9.600;2023-02-01T12:10:56;8.70;99.90
20370;DHT22;10344;47.592;9.600;2023-02-01T12:24:19;8.10;99.90
20370;DHT22;10344;47.592;9.600;2023-02-01T12:32:09;8.30;99.90
20370;DHT22;10344;47.592;9.600;2023-02-01T12:35:05;8.40;99.90
20370;DHT22;10344;47.592;9.600;2023-02-01T12:46:23;8.20;99.90
20370;DHT22;10344;47.592;9.600;2023-02-01T12:51:54;7.90;99.90
20370;DHT22;10344;47.592;9.600;2023-02-01T12:57:25;7.90;99.90
20370;DHT22;10344;47.592;9.600;2023-02-01T13:00:05;7.80;99.90
20370;DHT22;10344;47.592;9.600;2023-02-01T13:02:48;7.80;99.90
20370;DHT22;10344;47.592;9.600;2023-02-01T13:05:21;7.90;99.90
20370;DHT22;10344;47.592;9.600;2023-02-01T13:08:10;8.00;99.90
20370;DHT22;10344;47.592;9.600;2023-02-01T13:15:51;8.00;99.90
20370;DHT22;10344;47.592;9.600;2023-02-01T13:18:20;8.00;99.90
20370;DHT22;10344;47.592;9.600;2023-02-01T13:21:04;8.00;99.90
20370;DHT22;10344;47.592;9.600;2023-02-01T13:23:37;8.10;99.90
20370;DHT22;10344;47.592;9.600;2023-02-01T13:26:03;8.10;99.90
20370;DHT22;10344;47.592;9.600;2023-02-01T13:29:05;8.00;99.90
20370;DHT22;10344;47.592;9.600;2023-02-01T13:32:33;8.10;99.90
20370;DHT22;10344;47.592;9.600;2023-02-01T13:35:03;8.10;99.90
20370;DHT22;10344;47.592;9.600;2023-02-01T13:43:19;7.80;99.90
20370;DHT22;10344;47.592;9.600;2023-02-01T13:45:50;7.80;99.90
20370;DHT22;10344;47.592;9.600;2023-02-01T13:48:40;7.80;99.90
20370;DHT22;10344;47.592;9.600;2023-02-01T13:51:07;7.80;99.90
20370;DHT22;10344;47.592;9.600;2023-02-01T13:53:35;7.80;99.90
20370;DHT22;10344;47.592;9.600;2023-02-01T13:56:20;7.80;99.90
20370;DHT22;10344;47.592;9.600;2023-02-01T13:58:48;7.70;99.90
20370;DHT22;10344;47.592;9.600;2023-02-01T14:09:17;7.60;99.90
20370;DHT22;10344;47.592;9.600;2023-02-01T14:17:29;7.40;99.90
20370;DHT22;10344;47.592;9.600;2023-02-01T14:19:31;7.40;99.90
20370;DHT22;10344;47.592;9.600;2023-02-01T14:22:31;7.40;99.90
20370;DHT22;10344;47.592;9.600;2023-02-01T14:24:54;7.50;99.90
20370;DHT22;10344;47.592;9.600;2023-02-01T14:27:24;7.40;99.90
20370;DHT22;10344;47.592;9.600;2023-02-01T14:29:58;7.40;99.90
20370;DHT22;10344;47.592;9.600;2023-02-01T14:32:37;7.40;99.90
20370;DHT22;10344;47.592;9.600;2023-02-01T14:35:17;7.40;99.90
20370;DHT22;10344;47.592;9.600;2023-02-01T14:37:44;7.40;99.90
20370;DHT22;10344;47.592;9.600;2023-02-01T14:58:10;7.10;99.90
20370;DHT22;10344;47.592;9.600;2023-02-01T15:00:46;7.10;99.90
20370;DHT22;10344;47.592;9.600;2023-02-01T15:05:57;7.10;99.90
20370;DHT22;10344;47.592;9.600;2023-02-01T15:08:28;7.10;99.90
20370;DHT22;10344;47.592;9.600;2023-02-01T15:10:55;7.00;99.90
20370;DHT22;10344;47.592;9.600;2023-02-01T15:13:23;7.00;99.90
20370;DHT22;10344;47.592;9.600;2023-02-01T15:16:10;7.00;99.90
20370;DHT22;10344;47.592;9.600;2023-02-01T15:18:36;7.00;99.90
20370;DHT22;10344;47.592;9.600;2023-02-01T15:21:02;7.00;99.90
20370;DHT22;10344;47.592;9.600;2023-02-01T15:23:28;6.90;99.90
20370;DHT22;10344;47.592;9.600;2023-02-01T15:25:54;6.90;99.90
20370;DHT22;10344;47.592;9.600;2023-02-01T15:28:20;6.80;99.90
20370;DHT22;10344;47.592;9.600;2023-02-01T15:30:58;6.90;99.90
20370;DHT22;10344;47.592;9.600;2023-02-01T15:33:26;6.90;99.90
20370;DHT22;10344;47.592;9.600;2023-02-01T15:35:53;6.90;99.90
20370;DHT22;10344;47.592;9.600;2023-02-01T15:43:25;6.90;99.90
20370;DHT22;10344;47.592;9.600;2023-02-01T15:45:52;6.90;99.90
20370;DHT22;10344;47.592;9.600;2023-02-01T15:48:29;6.80;99.90
20370;DHT22;10344;47.592;9.600;2023-02-01T15:50:57;6.90;99.90
20370;DHT22;10344;47.592;9.600;2023-02-01T15:53:26;6.90;99.90
20370;DHT22;10344;47.592;9.600;2023-02-01T15:56:02;6.90;99.90
20370;DHT22;10344;47.592;9.600;2023-02-01T15:58:32;6.90;99.90
20370;DHT22;10344;47.592;9.600;2023-02-01T16:01:04;6.80;99.90
20370;DHT22;10344;47.592;9.600;2023-02-01T16:04:31;6.80;99.90
20370;DHT22;10344;47.592;9.600;2023-02-01T16:06:56;6.80;99.90
20370;DHT22;10344;47.592;9.600;2023-02-01T16:09:39;6.80;99.90
20370;DHT22;10344;47.592;9.600;2023-02-01T16:14:59;6.70;99.90
20370;DHT22;10344;47.592;9.600;2023-02-01T16:17:33;6.70;99.90
20370;DHT22;10344;47.592;9.600;2023-02-01T16:20:01;6.60;99.90
20370;DHT22;10344;47.592;9.600;2023-02-01T16:22:53;6.50;99.90
20370;DHT22;10344;47.592;9.600;2023-02-01T16:25:59;6.50;99.90
20370;DHT22;10344;47.592;9.600;2023-02-01T16:28:35;6.50;99.90
20370;DHT22;10344;47.592;9.600;2023-02-01T16:31:17;6.50;99.90
20370;DHT22;10344;47.592;9.600;2023-02-01T16:33:48;6.50;99.90
20370;DHT22;10344;47.592;9.600;2023-02-01T16:36:26;6.50;99.90
20370;DHT22;10344;47.592;9.600;2023-02-01T16:38:56;6.40;99.90
20370;DHT22;10344;47.592;9.600;2023-02-01T16:41:46;6.40;99.90
20370;DHT22;10344;47.592;9.600;2023-02-01T16:44:38;6.40;99.90
20370;DHT22;10344;47.592;9.600;2023-02-01T16:47:11;6.50;99.90
20370;DHT22;10344;47.592;9.600;2023-02-01T16:49:38;6.40;99.90
20370;DHT22;10344;47.592;9.600;2023-02-01T16:52:16;6.40;99.90
20370;DHT22;10344;47.592;9.600;2023-02-01T16:55:14;6.30;99.90
20370;DHT22;10344;47.592;9.600;2023-02-01T16:57:47;6.30;99.90
20370;DHT22;10344;47.592;9.600;2023-02-01T17:00:15;6.30;99.90
20370;DHT22;10344;47.592;9.600;2023-02-01T17:03:13;6.30;99.90
20370;DHT22;10344;47.592;9.600;2023-02-01T17:05:47;6.30;99.90
20370;DHT22;10344;47.592;9.600;2023-02-01T17:08:33;6.40;99.90
20370;DHT22;10344;47.592;9.600;2023-02-01T17:11:03;6.40;99.90
20370;DHT22;10344;47.592;9.600;2023-02-01T17:13:35;6.30;99.90
20370;DHT22;10344;47.592;9.600;2023-02-01T17:16:15;6.40;99.90
20370;DHT22;10344;47.592;9.600;2023-02-01T17:18:53;6.30;99.90
20370;DHT22;10344;47.592;9.600;2023-02-01T17:21:22;6.40;99.90
20370;DHT22;10344;47.592;9.600;2023-02-01T17:23:51;6.40;99.90
20370;DHT22;10344;47.592;9.600;2023-02-01T17:26:19;6.40;99.90
20370;DHT22;10344;47.592;9.600;2023-02-01T17:28:46;6.30;99.90
20370;DHT22;10344;47.592;9.600;2023-02-01T17:31:19;6.50;99.90
20370;DHT22;10344;47.592;9.600;2023-02-01T17:33:56;6.50;99.90
20370;DHT22;10344;47.592;9.600;2023-02-01T17:36:26;6.50;99.90
20370;DHT22;10344;47.592;9.600;2023-02-01T17:38:55;6.50;99.90
20370;DHT22;10344;47.592;9.600;2023-02-01T17:41:29;6.40;99.90
20370;DHT22;10344;47.592;9.600;2023-02-01T17:43:56;6.40;99.90
20370;DHT22;10344;47.592;9.600;2023-02-01T17:46:23;6.40;99.90
20370;DHT22;10344;47.592;9.600;2023-02-01T17:49:10;6.40;99.90
20370;DHT22;10344;47.592;9.600;2023-02-01T17:51:39;6.40;99.90
20370;DHT22;10344;47.592;9.600;2023-02-01T17:54:16;6.30;99.90
20370;DHT22;10344;47.592;9.600;2023-02-01T17:56:50;6.40;99.90
20370;DHT22;10344;47.592;9.600;2023-02-01T17:59:29;6.30;99.90
20370;DHT22;10344;47.592;9.600;2023-02-01T18:01:55;6.30;99.90
20370;DHT22;10344;47.592;9.600;2023-02-01T18:04:25;6.40;99.90
20370;DHT22;10344;47.592;9.600;2023-02-01T18:07:15;6.40;99.90
20370;DHT22;10344;47.592;9.600;2023-02-01T18:10:25;6.30;99.90
20370;DHT22;10344;47.592;9.600;2023-02-01T18:13:11;6.40;99.90
20370;DHT22;10344;47.592;9.600;2023-02-01T18:15:59;6.40;99.90
20370;DHT22;10344;47.592;9.600;2023-02-01T18:18:28;6.40;99.90
20370;DHT22;10344;47.592;9.600;2023-02-01T18:23:33;6.30;99.90
20370;DHT22;10344;47.592;9.600;2023-02-01T18:25:59;6.40;99.90
20370;DHT22;10344;47.592;9.600;2023-02-01T18:28:31;6.40;99.90
20370;DHT22;10344;47.592;9.600;2023-02-01T18:30:58;6.50;99.90
20370;DHT22;10344;47.592;9.600;2023-02-01T18:33:25;6.40;99.90
20370;DHT22;10344;47.592;9.600;2023-02-01T18:35:57;6.40;99.90
20370;DHT22;10344;47.592;9.600;2023-02-01T18:38:42;6.40;99.90
20370;DHT22;10344;47.592;9.600;2023-02-01T18:41:18;6.40;99.90
20370;DHT22;10344;47.592;9.600;2023-02-01T18:44:12;6.40;99.90
20370;DHT22;10344;47.592;9.600;2023-02-01T18:46:39;6.40;99.90
20370;DHT22;10344;47.592;9.600;2023-02-01T18:49:08;6.30;99.90
20370;DHT22;10344;47.592;9.600;2023-02-01T18:51:45;6.40;99.90
20370;DHT22;10344;47.592;9.600;2023-02-01T18:54:32;6.40;99.90
20370;DHT22;10344;47.592;9.600;2023-02-01T18:56:58;6.50;99.90
20370;DHT22;10344;47.592;9.600;2023-02-01T18:59:27;6.50;99.90
20370;DHT22;10344;47.592;9.600;2023-02-01T19:02:16;6.40;99.90
20370;DHT22;10344;47.592;9.600;2023-02-01T19:05:23;6.40;99.90